Terminal Aerodrome Forecast
Issued by NWS Portland, ME

Home | Current Version | Previous Version | Text Only | Print | Product List | Glossary On
Versions: 1 2 3 4 5 6 7 8 9 10 11 12 13 14 15 16 17 18 19 20 21
000
FTUS41 KGYX 301429 AAB
TAFPWM
TAF AMD
KPWM 301429Z 3014/3112 20009G23KT P6SM SCT060 BKN090
      TEMPO 3015/3016 1 1/2SM -SHSN BKN025 OVC040
     FM301600 20012G20KT P6SM -SHRA BKN025 OVC050
     FM302200 22008KT P6SM BKN050=

USA.gov is the U.S. government's official web portal to all federal, state and local government web resources and services.